createdAt,value
2023-01-28T00:01:49.917Z,28.48
2023-01-28T00:04:18.458Z,29.27
2023-01-28T00:06:46.634Z,27.20
2023-01-28T00:09:14.314Z,27.95
2023-01-28T00:11:42.709Z,26.60
2023-01-28T00:14:12.574Z,27.17
2023-01-28T00:16:40.554Z,26.58
2023-01-28T00:19:08.461Z,27.40
2023-01-28T00:21:36.728Z,25.60
2023-01-28T00:24:07.046Z,28.02
2023-01-28T00:26:35.471Z,26.27
2023-01-28T00:29:03.704Z,26.27
2023-01-28T00:31:31.807Z,28.20
2023-01-28T00:34:01.593Z,27.83
2023-01-28T00:36:29.567Z,28.85
2023-01-28T00:38:59.611Z,28.77
2023-01-28T00:41:30.084Z,25.85
2023-01-28T00:43:59.684Z,27.50
2023-01-28T00:46:28.008Z,26.00
2023-01-28T00:48:55.849Z,24.58
2023-01-28T00:51:23.875Z,27.92
2023-01-28T00:53:51.654Z,27.23
2023-01-28T00:56:19.886Z,25.17
2023-01-28T00:58:48.408Z,26.35
2023-01-28T01:01:19.452Z,25.02
2023-01-28T01:03:48.029Z,25.17
2023-01-28T01:06:16.928Z,25.27
2023-01-28T01:08:50.197Z,26.05
2023-01-28T01:11:19.485Z,25.58
2023-01-28T01:13:55.287Z,26.42
2023-01-28T01:16:28.587Z,25.95
2023-01-28T01:18:57.283Z,24.25
2023-01-28T01:21:28.015Z,24.30
2023-01-28T01:23:56.470Z,25.90
2023-01-28T01:26:27.384Z,25.42
2023-01-28T01:28:55.356Z,25.75
2023-01-28T01:31:23.570Z,26.02
2023-01-28T01:33:52.694Z,26.13
2023-01-28T01:36:22.134Z,25.00
2023-01-28T01:38:55.338Z,24.83
2023-01-28T01:41:33.632Z,25.95
2023-01-28T01:44:03.756Z,26.38
2023-01-28T01:46:36.167Z,25.80
2023-01-28T01:49:11.716Z,26.23
2023-01-28T01:51:40.816Z,24.58
2023-01-28T01:54:09.170Z,24.45
2023-01-28T01:56:42.503Z,25.75
2023-01-28T01:59:14.175Z,25.75
2023-01-28T02:01:45.873Z,25.90
2023-01-28T02:04:29.672Z,26.40
2023-01-28T02:09:29.703Z,24.92
2023-01-28T02:12:02.880Z,25.65
2023-01-28T02:14:33.476Z,27.08
2023-01-28T02:17:02.456Z,26.00
2023-01-28T02:19:55.226Z,26.80
2023-01-28T02:22:58.164Z,26.70
2023-01-28T02:25:55.555Z,26.00
2023-01-28T02:28:59.121Z,25.02
2023-01-28T02:31:51.537Z,25.45
2023-01-28T02:34:22.549Z,26.77
2023-01-28T02:37:09.127Z,26.40
2023-01-28T02:39:49.650Z,25.05
2023-01-28T02:42:31.920Z,27.08
2023-01-28T02:45:00.126Z,27.23
2023-01-28T02:47:46.505Z,27.70
2023-01-28T02:50:20.018Z,25.60
2023-01-28T02:53:15.218Z,26.05
2023-01-28T02:55:51.878Z,27.33
2023-01-28T02:58:48.443Z,27.13
2023-01-28T03:01:19.551Z,27.52
2023-01-28T03:04:08.128Z,26.90
2023-01-28T03:06:41.837Z,26.48
2023-01-28T03:09:26.900Z,25.48
2023-01-28T03:12:31.572Z,24.52
2023-01-28T03:15:29.997Z,25.53
2023-01-28T03:18:55.804Z,24.98
2023-01-28T03:21:53.932Z,24.52
2023-01-28T03:24:49.665Z,25.65
2023-01-28T03:27:53.188Z,23.48
2023-01-28T03:30:53.839Z,24.00
2023-01-28T03:33:52.545Z,23.88
2023-01-28T03:36:39.469Z,23.02
2023-01-28T03:39:11.241Z,21.92
2023-01-28T03:41:40.458Z,22.65
2023-01-28T03:44:26.668Z,22.45
2023-01-28T03:46:54.843Z,21.55
2023-01-28T03:49:22.767Z,21.30
2023-01-28T03:51:50.878Z,20.90
2023-01-28T03:54:18.706Z,21.27
2023-01-28T03:56:48.583Z,18.95
2023-01-28T03:59:17.931Z,18.70
2023-01-28T04:01:46.078Z,19.05
2023-01-28T04:04:23.026Z,20.50
2023-01-28T04:07:00.317Z,20.20
2023-01-28T04:09:48.340Z,18.90
2023-01-28T04:12:27.693Z,18.63
2023-01-28T04:14:56.145Z,18.05
2023-01-28T04:17:29.130Z,19.53
2023-01-28T04:19:57.950Z,18.67
2023-01-28T04:22:26.926Z,18.73
2023-01-28T04:24:54.748Z,18.60
2023-01-28T04:27:22.708Z,18.60
2023-01-28T04:29:51.374Z,18.10
2023-01-28T04:32:47.337Z,19.50
2023-01-28T04:35:33.548Z,18.27
2023-01-28T04:38:08.737Z,18.17
2023-01-28T04:40:49.272Z,18.30
2023-01-28T04:43:26.385Z,17.98
2023-01-28T04:46:16.889Z,18.35
2023-01-28T04:49:04.625Z,18.35
2023-01-28T04:52:01.831Z,16.42
2023-01-28T04:54:41.500Z,18.63
2023-01-28T04:57:09.729Z,17.70
2023-01-28T04:59:37.724Z,18.23
2023-01-28T05:02:06.069Z,18.45
2023-01-28T05:04:34.227Z,17.50
2023-01-28T05:07:02.447Z,17.77
2023-01-28T05:09:33.917Z,18.13
2023-01-28T05:12:01.744Z,18.25
2023-01-28T05:14:32.561Z,17.92
2023-01-28T05:17:05.967Z,17.88
2023-01-28T05:19:34.113Z,18.10
2023-01-28T05:22:03.461Z,17.33
2023-01-28T05:24:54.105Z,17.35
2023-01-28T05:27:22.151Z,17.88
2023-01-28T05:29:50.045Z,16.58
2023-01-28T05:32:17.731Z,18.35
2023-01-28T05:34:46.278Z,17.70
2023-01-28T05:37:15.266Z,18.88
2023-01-28T05:39:43.278Z,18.75
2023-01-28T05:42:11.533Z,17.65
2023-01-28T05:44:45.381Z,18.65
2023-01-28T05:47:19.299Z,19.02
2023-01-28T05:52:40.903Z,19.30
2023-01-28T05:55:15.863Z,20.60
2023-01-28T05:57:44.604Z,17.92
2023-01-28T06:00:16.315Z,17.13
2023-01-28T06:02:45.361Z,17.02
2023-01-28T06:05:16.261Z,16.55
2023-01-28T06:07:48.448Z,16.90
2023-01-28T06:10:20.069Z,17.63
2023-01-28T06:12:48.623Z,16.90
2023-01-28T06:15:37.083Z,17.15
2023-01-28T06:18:23.001Z,18.13
2023-01-28T06:20:52.416Z,17.27
2023-01-28T06:23:20.356Z,17.15
2023-01-28T06:25:48.507Z,17.73
2023-01-28T06:28:16.907Z,18.48
2023-01-28T06:30:48.024Z,20.00
2023-01-28T06:33:15.802Z,20.38
2023-01-28T06:35:44.028Z,20.90
2023-01-28T06:38:12.809Z,20.17
2023-01-28T06:40:40.796Z,20.65
2023-01-28T06:43:08.542Z,20.83
2023-01-28T06:45:36.457Z,22.65
2023-01-28T06:48:05.635Z,22.70
2023-01-28T06:50:34.602Z,21.92
2023-01-28T06:53:02.208Z,20.60
2023-01-28T06:55:30.147Z,22.65
2023-01-28T06:57:57.908Z,23.48
2023-01-28T07:00:26.029Z,24.95
2023-01-28T07:02:57.306Z,22.83
2023-01-28T07:05:25.968Z,21.08
2023-01-28T07:07:53.718Z,21.23
2023-01-28T07:10:21.719Z,22.10
2023-01-28T07:12:49.475Z,21.88
2023-01-28T07:15:17.483Z,22.20
2023-01-28T07:17:45.680Z,21.92
2023-01-28T07:20:15.631Z,23.15
2023-01-28T07:22:44.657Z,22.35
2023-01-28T07:25:14.238Z,20.83
2023-01-28T07:27:48.013Z,20.00
2023-01-28T07:30:17.034Z,19.10
2023-01-28T07:32:45.845Z,20.02
2023-01-28T07:35:14.281Z,18.45
2023-01-28T07:37:41.964Z,19.23
2023-01-28T07:40:10.764Z,17.88
2023-01-28T07:42:39.276Z,18.10
2023-01-28T07:45:08.264Z,19.50
2023-01-28T07:47:37.059Z,18.45
2023-01-28T07:50:05.552Z,17.58
2023-01-28T07:52:38.850Z,17.42
2023-01-28T07:55:07.129Z,19.75
2023-01-28T07:57:34.856Z,18.42
2023-01-28T08:00:03.093Z,19.83
2023-01-28T08:02:39.718Z,19.40
2023-01-28T08:05:08.307Z,19.02
2023-01-28T08:07:36.190Z,19.70
2023-01-28T08:10:04.448Z,22.90
2023-01-28T08:12:32.099Z,22.70
2023-01-28T08:15:00.137Z,20.55
2023-01-28T08:17:28.583Z,19.50
2023-01-28T08:19:56.565Z,20.90
2023-01-28T08:22:28.348Z,19.67
2023-01-28T08:24:56.516Z,20.30
2023-01-28T08:27:24.257Z,18.80
2023-01-28T08:29:52.292Z,18.20
2023-01-28T08:32:19.957Z,17.92
2023-01-28T08:34:48.044Z,17.50
2023-01-28T08:37:15.766Z,16.95
2023-01-28T08:39:45.582Z,17.08
2023-01-28T08:42:14.106Z,15.85
2023-01-28T08:44:42.048Z,16.60
2023-01-28T08:47:09.720Z,16.33
2023-01-28T08:49:37.637Z,16.80
2023-01-28T08:52:05.463Z,15.55
2023-01-28T08:54:33.955Z,16.05
2023-01-28T08:57:01.654Z,16.98
2023-01-28T08:59:29.673Z,16.98
2023-01-28T09:01:57.398Z,18.10
2023-01-28T09:04:25.360Z,18.88
2023-01-28T09:06:54.128Z,17.33
2023-01-28T09:09:22.352Z,17.83
2023-01-28T09:11:49.981Z,17.80
2023-01-28T09:14:17.965Z,18.27
2023-01-28T09:16:45.682Z,20.65
2023-01-28T09:19:15.015Z,20.67
2023-01-28T09:21:43.405Z,19.17
2023-01-28T09:24:12.350Z,19.85
2023-01-28T09:26:40.022Z,19.00
2023-01-28T09:29:07.934Z,18.98
2023-01-28T09:31:35.730Z,18.33
2023-01-28T09:34:04.214Z,19.55
2023-01-28T09:36:32.704Z,20.15
2023-01-28T09:39:01.751Z,18.88
2023-01-28T09:41:42.676Z,19.58
2023-01-28T09:44:32.589Z,19.58
2023-01-28T09:47:08.866Z,20.13
2023-01-28T09:49:48.743Z,20.58
2023-01-28T09:52:19.414Z,19.15
2023-01-28T09:54:50.662Z,19.45
2023-01-28T09:57:26.154Z,18.73
2023-01-28T09:59:54.097Z,18.95
2023-01-28T10:02:36.736Z,16.90
2023-01-28T10:05:17.089Z,17.50
2023-01-28T10:07:52.299Z,18.15
2023-01-28T10:10:29.158Z,17.98
2023-01-28T10:13:30.881Z,18.08
2023-01-28T10:16:20.656Z,18.38
2023-01-28T10:19:11.264Z,18.02
2023-01-28T10:21:50.536Z,16.63
2023-01-28T10:24:44.430Z,17.75
2023-01-28T10:27:19.941Z,18.20
2023-01-28T10:29:50.147Z,19.17
2023-01-28T10:32:29.217Z,19.75
2023-01-28T10:34:59.824Z,19.83
2023-01-28T10:37:29.416Z,18.85
2023-01-28T10:40:00.324Z,19.50
2023-01-28T10:42:36.340Z,17.02
2023-01-28T10:45:14.843Z,18.88
2023-01-28T10:47:51.887Z,18.17
2023-01-28T10:50:24.672Z,18.65
2023-01-28T10:52:55.486Z,18.43
2023-01-28T10:55:27.367Z,18.42
2023-01-28T10:57:55.913Z,17.38
2023-01-28T11:00:37.453Z,16.77
2023-01-28T11:03:06.193Z,16.23
2023-01-28T11:05:34.008Z,17.90
2023-01-28T11:08:19.365Z,17.52
2023-01-28T11:13:24.909Z,18.25
2023-01-28T11:15:53.697Z,18.50
2023-01-28T11:18:24.934Z,18.45
2023-01-28T11:21:00.359Z,18.35
2023-01-28T11:23:41.728Z,18.42
2023-01-28T11:26:21.446Z,19.33
2023-01-28T11:28:50.307Z,19.52
2023-01-28T11:31:20.518Z,18.40
2023-01-28T11:34:00.564Z,19.42
2023-01-28T11:36:33.800Z,19.02
2023-01-28T11:39:28.649Z,17.57
2023-01-28T11:42:17.700Z,17.33
2023-01-28T11:44:49.440Z,15.35
2023-01-28T11:47:32.563Z,14.90
2023-01-28T11:50:21.020Z,14.95
2023-01-28T11:53:07.769Z,14.00
2023-01-28T11:56:09.522Z,14.73
2023-01-28T11:58:49.317Z,15.65
2023-01-28T12:01:36.228Z,16.00
2023-01-28T12:04:22.970Z,15.50
2023-01-28T12:07:24.894Z,16.33
2023-01-28T12:09:58.336Z,15.43
2023-01-28T12:13:04.285Z,15.93
2023-01-28T12:15:41.358Z,14.15
2023-01-28T12:18:19.049Z,14.70
2023-01-28T12:20:59.326Z,14.52
2023-01-28T12:23:42.148Z,16.23
2023-01-28T12:26:13.385Z,14.65
2023-01-28T12:28:41.058Z,15.32
2023-01-28T12:31:52.843Z,15.40
2023-01-28T12:34:41.731Z,15.85
2023-01-28T12:37:25.562Z,16.60
2023-01-28T12:40:26.601Z,16.80
2023-01-28T12:43:10.527Z,17.70
2023-01-28T12:45:42.565Z,18.08
2023-01-28T12:48:45.469Z,19.67
2023-01-28T12:51:17.747Z,19.05
2023-01-28T12:53:54.650Z,19.15
2023-01-28T12:56:29.908Z,19.65
2023-01-28T12:59:35.794Z,17.98
2023-01-28T13:02:18.622Z,18.75
2023-01-28T13:05:09.228Z,19.17
2023-01-28T13:07:59.288Z,19.77
2023-01-28T13:10:38.648Z,18.85
2023-01-28T13:13:07.732Z,18.35
2023-01-28T13:15:39.891Z,19.67
2023-01-28T13:18:07.893Z,18.33
2023-01-28T13:20:36.680Z,20.25
2023-01-28T13:23:20.926Z,19.75
2023-01-28T13:25:51.531Z,20.23
2023-01-28T13:28:32.863Z,18.90
2023-01-28T13:31:08.756Z,19.05
2023-01-28T13:33:40.077Z,19.88
2023-01-28T13:36:41.893Z,20.27
2023-01-28T13:39:21.198Z,20.38
2023-01-28T13:41:52.349Z,20.90
2023-01-28T13:44:26.270Z,19.60
2023-01-28T13:46:56.990Z,20.17
2023-01-28T13:49:49.650Z,20.75
2023-01-28T13:52:53.529Z,21.15
2023-01-28T13:55:42.799Z,21.23
2023-01-28T13:58:36.315Z,21.65
2023-01-28T14:01:20.381Z,20.50
2023-01-28T14:04:00.254Z,19.95
2023-01-28T14:06:40.577Z,20.17
2023-01-28T14:09:29.728Z,19.42
2023-01-28T14:12:37.169Z,20.23
2023-01-28T14:15:45.949Z,21.27
2023-01-28T14:18:33.071Z,20.85
2023-01-28T14:21:05.059Z,20.25
2023-01-28T14:23:32.985Z,18.77
2023-01-28T14:26:15.931Z,20.98
2023-01-28T14:28:57.232Z,20.20
2023-01-28T14:31:37.199Z,20.08
2023-01-28T14:34:13.902Z,20.85
2023-01-28T14:36:44.938Z,19.45
2023-01-28T14:39:19.209Z,21.50
2023-01-28T14:41:50.636Z,20.88
2023-01-28T14:44:25.203Z,21.13
2023-01-28T14:47:06.461Z,20.50
2023-01-28T14:49:52.463Z,21.60
2023-01-28T14:52:40.604Z,20.30
2023-01-28T14:55:40.607Z,20.88
2023-01-28T14:58:28.282Z,20.85
2023-01-28T15:00:59.309Z,20.13
2023-01-28T15:03:29.191Z,20.10
2023-01-28T15:06:13.413Z,20.65
2023-01-28T15:08:41.416Z,20.80
2023-01-28T15:11:14.895Z,20.42
2023-01-28T15:13:47.583Z,19.48
2023-01-28T15:16:25.549Z,20.48
2023-01-28T15:18:53.664Z,20.52
2023-01-28T15:21:27.053Z,20.52
2023-01-28T15:23:58.424Z,21.17
2023-01-28T15:26:34.708Z,20.80
2023-01-28T15:29:02.933Z,21.50
2023-01-28T15:31:38.853Z,20.90
2023-01-28T15:34:18.897Z,17.88
2023-01-28T15:36:49.695Z,18.45
2023-01-28T15:39:23.356Z,18.50
2023-01-28T15:42:06.815Z,20.25
2023-01-28T15:44:42.362Z,20.40
2023-01-28T15:47:46.105Z,21.40
2023-01-28T15:50:26.012Z,21.55
2023-01-28T15:52:55.586Z,21.35
2023-01-28T15:55:39.942Z,22.23
2023-01-28T16:01:09.314Z,21.17
2023-01-28T16:03:40.022Z,21.33
2023-01-28T16:06:19.254Z,21.25
2023-01-28T16:08:50.989Z,17.38
2023-01-28T16:11:41.484Z,17.17
2023-01-28T16:14:25.519Z,15.30
2023-01-28T16:16:55.912Z,13.45
2023-01-28T16:19:38.781Z,10.45
2023-01-28T16:22:09.231Z,13.50
2023-01-28T16:24:37.147Z,15.65
2023-01-28T16:27:19.302Z,14.65
2023-01-28T16:29:46.963Z,14.75
2023-01-28T16:32:35.505Z,14.55
2023-01-28T16:35:03.753Z,10.45
2023-01-28T16:37:31.838Z,8.68
2023-01-28T16:40:01.568Z,8.02
2023-01-28T16:42:32.393Z,7.97
2023-01-28T16:45:00.107Z,8.07
2023-01-28T16:47:28.611Z,7.82
2023-01-28T16:49:56.590Z,7.68
2023-01-28T16:52:24.839Z,8.13
2023-01-28T16:54:52.560Z,7.10
2023-01-28T16:57:22.780Z,7.68
2023-01-28T16:59:50.582Z,7.72
2023-01-28T17:02:18.619Z,8.38
2023-01-28T17:04:46.521Z,8.45
2023-01-28T17:07:14.894Z,8.32
2023-01-28T17:09:42.629Z,8.43
2023-01-28T17:12:10.641Z,8.55
2023-01-28T17:14:39.638Z,8.95
2023-01-28T17:17:07.899Z,9.45
2023-01-28T17:19:35.750Z,9.43
2023-01-28T17:22:03.753Z,10.52
2023-01-28T17:24:31.609Z,9.73
2023-01-28T17:26:59.706Z,10.10
2023-01-28T17:29:28.146Z,10.82
2023-01-28T17:31:56.551Z,11.80
2023-01-28T17:34:24.349Z,11.95
2023-01-28T17:36:52.385Z,12.20
2023-01-28T17:39:20.047Z,13.18
2023-01-28T17:41:48.063Z,13.05
2023-01-28T17:44:15.857Z,13.38
2023-01-28T17:46:43.798Z,13.73
2023-01-28T17:49:12.344Z,15.43
2023-01-28T17:51:40.797Z,13.32
2023-01-28T17:54:08.569Z,15.95
2023-01-28T17:56:37.595Z,15.82
2023-01-28T17:59:06.717Z,16.27
2023-01-28T18:01:37.248Z,15.18
2023-01-28T18:04:05.438Z,15.40
2023-01-28T18:06:36.690Z,15.13
2023-01-28T18:09:05.540Z,14.10
2023-01-28T18:11:33.566Z,13.60
2023-01-28T18:14:01.431Z,14.55
2023-01-28T18:16:29.451Z,14.15
2023-01-28T18:18:57.149Z,14.88
2023-01-28T18:21:51.598Z,14.20
2023-01-28T18:24:21.968Z,12.77
2023-01-28T18:26:51.044Z,12.50
2023-01-28T18:29:20.948Z,11.40
2023-01-28T18:31:50.153Z,12.77
2023-01-28T18:34:18.846Z,12.90
2023-01-28T18:36:47.195Z,12.40
2023-01-28T18:39:15.836Z,11.77
2023-01-28T18:41:43.965Z,8.57
2023-01-28T18:44:14.219Z,8.52
2023-01-28T18:46:42.704Z,8.27
2023-01-28T18:49:10.492Z,7.43
2023-01-28T18:51:38.785Z,7.57
2023-01-28T18:54:11.127Z,6.93
2023-01-28T18:56:41.140Z,7.18
2023-01-28T18:59:12.800Z,6.90
2023-01-28T19:01:42.661Z,7.05
2023-01-28T19:04:11.362Z,6.80
2023-01-28T19:06:39.374Z,7.20
2023-01-28T19:09:08.558Z,7.35
2023-01-28T19:11:38.559Z,8.05
2023-01-28T19:14:06.794Z,8.23
2023-01-28T19:16:37.303Z,8.20
2023-01-28T19:19:05.710Z,7.60
2023-01-28T19:21:34.327Z,7.60
2023-01-28T19:24:06.706Z,7.10
2023-01-28T19:26:34.697Z,7.90
2023-01-28T19:29:02.669Z,7.22
2023-01-28T19:31:30.837Z,7.10
2023-01-28T19:34:00.177Z,7.35
2023-01-28T19:36:30.127Z,6.70
2023-01-28T19:38:59.874Z,6.38
2023-01-28T19:41:29.348Z,6.90
2023-01-28T19:43:57.745Z,7.28
2023-01-28T19:46:26.304Z,6.90
2023-01-28T19:48:54.511Z,7.55
2023-01-28T19:51:23.873Z,7.55
2023-01-28T19:53:53.554Z,7.78
2023-01-28T19:56:25.469Z,7.25
2023-01-28T19:58:54.652Z,7.95
2023-01-28T20:01:25.777Z,8.30
2023-01-28T20:03:57.473Z,9.00
2023-01-28T20:06:29.558Z,9.13
2023-01-28T20:09:02.502Z,8.35
2023-01-28T20:11:30.827Z,8.90
2023-01-28T20:13:59.851Z,8.82
2023-01-28T20:16:30.759Z,9.10
2023-01-28T20:19:04.540Z,8.88
2023-01-28T20:21:33.680Z,8.90
2023-01-28T20:24:02.799Z,9.80
2023-01-28T20:26:33.349Z,10.65
2023-01-28T20:29:03.530Z,9.48
2023-01-28T20:31:33.468Z,10.27
2023-01-28T20:34:01.880Z,9.40
2023-01-28T20:36:29.886Z,9.80
2023-01-28T20:38:57.647Z,10.52
2023-01-28T20:41:27.374Z,9.63
2023-01-28T20:43:55.997Z,9.85
2023-01-28T20:46:30.802Z,9.93
2023-01-28T20:49:00.580Z,8.57
2023-01-28T20:51:31.529Z,9.05
2023-01-28T20:54:00.809Z,9.30
2023-01-28T20:56:32.770Z,8.00
2023-01-28T20:59:06.007Z,8.13
2023-01-28T21:01:35.767Z,8.07
2023-01-28T21:04:04.974Z,8.05
2023-01-28T21:06:33.534Z,8.52
2023-01-28T21:09:01.487Z,8.48
2023-01-28T21:11:30.554Z,8.10
2023-01-28T21:13:58.684Z,8.32
2023-01-28T21:18:48.361Z,8.90
2023-01-28T21:21:21.762Z,9.23
2023-01-28T21:23:49.969Z,9.15
2023-01-28T21:26:18.314Z,9.23
2023-01-28T21:28:46.306Z,9.60
2023-01-28T21:31:22.676Z,8.32
2023-01-28T21:33:51.348Z,7.82
2023-01-28T21:36:19.913Z,8.63
2023-01-28T21:39:01.199Z,8.30
2023-01-28T21:41:29.340Z,8.55
2023-01-28T21:43:57.735Z,9.00
2023-01-28T21:46:33.984Z,9.15
2023-01-28T21:49:05.443Z,8.40
2023-01-28T21:51:40.277Z,9.02
2023-01-28T21:54:12.989Z,9.52
2023-01-28T21:56:43.835Z,9.77
2023-01-28T21:59:30.868Z,9.52
2023-01-28T22:02:01.413Z,9.48
2023-01-28T22:04:34.672Z,9.27
2023-01-28T22:07:04.647Z,9.10
2023-01-28T22:09:33.962Z,9.27
2023-01-28T22:12:09.390Z,10.43
2023-01-28T22:14:38.562Z,10.63
2023-01-28T22:17:09.194Z,9.50
2023-01-28T22:19:37.194Z,11.23
2023-01-28T22:22:05.543Z,11.32
2023-01-28T22:24:33.359Z,11.40
2023-01-28T22:27:01.509Z,11.65
2023-01-28T22:29:29.211Z,12.93
2023-01-28T22:31:57.169Z,11.50
2023-01-28T22:34:25.130Z,11.50
2023-01-28T22:36:53.215Z,10.25
2023-01-28T22:39:20.890Z,9.90
2023-01-28T22:41:48.902Z,10.57
2023-01-28T22:44:16.857Z,9.98
2023-01-28T22:46:44.914Z,9.93
2023-01-28T22:49:14.899Z,10.57
2023-01-28T22:51:43.080Z,9.80
2023-01-28T22:54:14.986Z,9.32
2023-01-28T22:56:43.281Z,9.18
2023-01-28T22:59:12.193Z,10.05
2023-01-28T23:01:40.522Z,10.02
2023-01-28T23:04:08.329Z,9.00
2023-01-28T23:06:37.289Z,8.75
2023-01-28T23:09:05.261Z,9.40
2023-01-28T23:11:33.409Z,7.70
2023-01-28T23:14:21.708Z,8.10
2023-01-28T23:17:08.667Z,8.35
2023-01-28T23:19:55.273Z,8.07
2023-01-28T23:22:46.387Z,7.90
2023-01-28T23:25:14.644Z,8.27
2023-01-28T23:27:43.130Z,8.55
2023-01-28T23:30:11.682Z,8.55
2023-01-28T23:32:43.022Z,8.70
2023-01-28T23:35:12.228Z,8.70
2023-01-28T23:37:40.319Z,8.68
2023-01-28T23:40:08.702Z,7.63
2023-01-28T23:42:36.942Z,7.93
2023-01-28T23:45:05.465Z,8.32
2023-01-28T23:47:33.797Z,8.25
2023-01-28T23:50:01.799Z,8.48
2023-01-28T23:52:29.780Z,7.85
2023-01-28T23:54:57.430Z,8.75
2023-01-28T23:57:25.344Z,8.30
2023-01-28T23:59:53.030Z,7.57
